Springfield, MO

1:45 PM CDT on May 22, 2015 (GMT -0500)
Southview Estates | | Change Station
CLOSE
Current Station
Personal Weather Station
Location: Springfield, MO
Elevation: 1191 ft
Nearby Weather Stations

Elev 1191 ft 37.12 °N, 93.33 °W | Updated 23 seconds ago

Mostly Cloudy
Mostly Cloudy
65.3 °F
Feels Like 65.3 °F
N
1.0
Wind Variable Wind from ESE
Gusts 3.0 mph

Today
High -- | Low -- °F
--% Chance of Precip.
Yesterday
High -- | Low -- °F
Precip. -- in
5:59 AM 8:20 PM
Waxing Crescent, 23% visible
Pressure 30.28 in
Visibility 10.0 miles
Clouds Clear
Dew Point 48 °F
Humidity 54%
Rainfall 0.00 in
Snow Depth Not available.
UV 12 out of 12
Pollen 9.10 out of 12
Air Quality Not available.
Flu Activity Sporadic
METAR KSGF 221752Z VRB03KT 10SM CLR 19/07 A3028 RMK AO2 SLP252 T01890072 10194 20089 56008

More Conditions Fewer Conditions

Pressure 30.28 in
Visibility 10.0 miles
Clouds Clear
Dew Point 48 °F
Humidity 54%
Rainfall 0.00 in
Snow Depth Not available.
UV 12 out of 12
Pollen 9.10 out of 12
Air Quality Not available.
Flu Activity Sporadic
METAR KSGF 221752Z VRB03KT 10SM CLR 19/07 A3028 RMK AO2 SLP252 T01890072 10194 20089 56008

More Conditions Fewer Conditions

10-Day Weather Forecast

Almanac

Astronomy

May. 22, 2015 Rise Set
Actual Time
Civil Twilight
Nautical Twilight
Astronomical Twilight
Moon
Length of Visible Light
Length of Day
Tomorrow will be .
, % of the Moon is Illuminated

Today's Extremes

State Highs State Lows

Community

WunderPhotos

Upload Photos

1,823,276 photos uploaded!

WunderBlogs® & News

Nearby

Air Quality

  Air Quality AQ Index Pollutant
Not available.

Snow Depth

Station Depth Elevation

Earthquake Activity

City Distance Mag. Time & Date
Minimum magnitude displayed is 2.5.

Coastal Water Temperatures

Place Temperature

Stations

Nearby Weather Stations

Station Location Temp. Windchill Dew Point Humidity Wind Precip. Elev Updated Type